sensor_id;sensor_type;location;lat;lon;timestamp;P1;durP1;ratioP1;P2;durP2;ratioP2
17197;SDS011;8715;51.010;6.812;2023-07-28T00:01:04;964.72;;;886.40;;
17197;SDS011;8715;51.010;6.812;2023-07-28T00:03:49;964.58;;;886.00;;
17197;SDS011;8715;51.010;6.812;2023-07-28T00:06:34;957.65;;;878.75;;
17197;SDS011;8715;51.010;6.812;2023-07-28T00:09:20;961.47;;;880.80;;
17197;SDS011;8715;51.010;6.812;2023-07-28T00:12:08;961.58;;;880.53;;
17197;SDS011;8715;51.010;6.812;2023-07-28T00:14:53;959.17;;;879.78;;
17197;SDS011;8715;51.010;6.812;2023-07-28T00:17:38;962.88;;;881.63;;
17197;SDS011;8715;51.010;6.812;2023-07-28T00:20:23;959.28;;;878.47;;
17197;SDS011;8715;51.010;6.812;2023-07-28T00:23:08;967.70;;;885.05;;
17197;SDS011;8715;51.010;6.812;2023-07-28T00:25:52;961.53;;;881.60;;
17197;SDS011;8715;51.010;6.812;2023-07-28T00:28:39;974.05;;;892.92;;
17197;SDS011;8715;51.010;6.812;2023-07-28T00:31:23;967.17;;;884.25;;
17197;SDS011;8715;51.010;6.812;2023-07-28T00:34:08;966.83;;;883.70;;
17197;SDS011;8715;51.010;6.812;2023-07-28T00:36:53;967.72;;;887.40;;
17197;SDS011;8715;51.010;6.812;2023-07-28T00:39:38;966.38;;;883.88;;
17197;SDS011;8715;51.010;6.812;2023-07-28T00:42:23;968.60;;;884.47;;
17197;SDS011;8715;51.010;6.812;2023-07-28T00:45:09;989.70;;;895.40;;
17197;SDS011;8715;51.010;6.812;2023-07-28T00:47:54;994.60;;;901.15;;
17197;SDS011;8715;51.010;6.812;2023-07-28T00:50:41;975.30;;;888.42;;
17197;SDS011;8715;51.010;6.812;2023-07-28T00:53:26;974.58;;;889.00;;
17197;SDS011;8715;51.010;6.812;2023-07-28T00:56:11;979.17;;;890.63;;
17197;SDS011;8715;51.010;6.812;2023-07-28T00:58:57;980.95;;;891.42;;
17197;SDS011;8715;51.010;6.812;2023-07-28T01:01:43;985.00;;;894.28;;
17197;SDS011;8715;51.010;6.812;2023-07-28T01:04:28;981.67;;;892.58;;
17197;SDS011;8715;51.010;6.812;2023-07-28T01:07:13;978.53;;;890.83;;
17197;SDS011;8715;51.010;6.812;2023-07-28T01:10:01;964.05;;;879.47;;
17197;SDS011;8715;51.010;6.812;2023-07-28T01:12:47;970.70;;;886.35;;
17197;SDS011;8715;51.010;6.812;2023-07-28T01:15:31;977.22;;;892.72;;
17197;SDS011;8715;51.010;6.812;2023-07-28T01:18:18;971.67;;;886.50;;
17197;SDS011;8715;51.010;6.812;2023-07-28T01:21:03;968.10;;;886.08;;
17197;SDS011;8715;51.010;6.812;2023-07-28T01:23:52;973.30;;;889.78;;
17197;SDS011;8715;51.010;6.812;2023-07-28T01:26:42;913.03;;;829.75;;
17197;SDS011;8715;51.010;6.812;2023-07-28T01:29:27;952.15;;;867.85;;
17197;SDS011;8715;51.010;6.812;2023-07-28T01:32:12;979.70;;;893.05;;
17197;SDS011;8715;51.010;6.812;2023-07-28T01:34:57;979.97;;;894.03;;
17197;SDS011;8715;51.010;6.812;2023-07-28T01:37:42;974.50;;;888.80;;
17197;SDS011;8715;51.010;6.812;2023-07-28T01:40:29;971.13;;;886.90;;
17197;SDS011;8715;51.010;6.812;2023-07-28T01:43:15;969.80;;;884.78;;
17197;SDS011;8715;51.010;6.812;2023-07-28T01:46:00;966.90;;;881.80;;
17197;SDS011;8715;51.010;6.812;2023-07-28T01:48:45;975.08;;;892.78;;
17197;SDS011;8715;51.010;6.812;2023-07-28T01:51:30;976.17;;;892.95;;
17197;SDS011;8715;51.010;6.812;2023-07-28T01:54:14;909.13;;;826.25;;
17197;SDS011;8715;51.010;6.812;2023-07-28T01:56:59;920.63;;;839.15;;
17197;SDS011;8715;51.010;6.812;2023-07-28T01:59:46;974.33;;;892.17;;
17197;SDS011;8715;51.010;6.812;2023-07-28T02:02:31;971.63;;;889.35;;
17197;SDS011;8715;51.010;6.812;2023-07-28T02:05:16;959.53;;;877.88;;
17197;SDS011;8715;51.010;6.812;2023-07-28T02:08:01;907.70;;;824.63;;
17197;SDS011;8715;51.010;6.812;2023-07-28T02:10:46;946.53;;;865.05;;
17197;SDS011;8715;51.010;6.812;2023-07-28T02:13:31;941.33;;;859.22;;
17197;SDS011;8715;51.010;6.812;2023-07-28T02:16:17;950.35;;;869.13;;
17197;SDS011;8715;51.010;6.812;2023-07-28T02:19:02;974.38;;;884.00;;
17197;SDS011;8715;51.010;6.812;2023-07-28T02:21:47;961.50;;;877.58;;
17197;SDS011;8715;51.010;6.812;2023-07-28T02:24:33;968.45;;;882.85;;
17197;SDS011;8715;51.010;6.812;2023-07-28T02:27:18;973.80;;;888.05;;
17197;SDS011;8715;51.010;6.812;2023-07-28T02:30:03;973.08;;;886.95;;
17197;SDS011;8715;51.010;6.812;2023-07-28T02:32:49;972.88;;;887.10;;
17197;SDS011;8715;51.010;6.812;2023-07-28T02:35:34;970.75;;;884.53;;
17197;SDS011;8715;51.010;6.812;2023-07-28T02:38:19;974.90;;;889.53;;
17197;SDS011;8715;51.010;6.812;2023-07-28T02:41:04;971.50;;;886.70;;
17197;SDS011;8715;51.010;6.812;2023-07-28T02:43:50;982.17;;;896.97;;
17197;SDS011;8715;51.010;6.812;2023-07-28T02:46:35;973.75;;;888.92;;
17197;SDS011;8715;51.010;6.812;2023-07-28T02:49:23;972.13;;;887.67;;
17197;SDS011;8715;51.010;6.812;2023-07-28T02:52:08;973.28;;;888.58;;
17197;SDS011;8715;51.010;6.812;2023-07-28T02:54:53;972.58;;;888.30;;
17197;SDS011;8715;51.010;6.812;2023-07-28T02:57:37;974.17;;;889.58;;
17197;SDS011;8715;51.010;6.812;2023-07-28T03:00:22;971.22;;;886.42;;
17197;SDS011;8715;51.010;6.812;2023-07-28T03:03:08;973.42;;;887.50;;
17197;SDS011;8715;51.010;6.812;2023-07-28T03:05:55;975.08;;;889.25;;
17197;SDS011;8715;51.010;6.812;2023-07-28T03:08:40;968.78;;;883.72;;
17197;SDS011;8715;51.010;6.812;2023-07-28T03:11:25;970.50;;;885.10;;
17197;SDS011;8715;51.010;6.812;2023-07-28T03:14:10;971.47;;;887.00;;
17197;SDS011;8715;51.010;6.812;2023-07-28T03:16:56;971.83;;;886.72;;
17197;SDS011;8715;51.010;6.812;2023-07-28T03:19:41;972.60;;;887.63;;
17197;SDS011;8715;51.010;6.812;2023-07-28T03:22:27;968.88;;;883.67;;
17197;SDS011;8715;51.010;6.812;2023-07-28T03:25:13;971.38;;;886.78;;
17197;SDS011;8715;51.010;6.812;2023-07-28T03:27:58;971.45;;;886.53;;
17197;SDS011;8715;51.010;6.812;2023-07-28T03:30:43;974.70;;;889.15;;
17197;SDS011;8715;51.010;6.812;2023-07-28T03:33:28;979.05;;;894.70;;
17197;SDS011;8715;51.010;6.812;2023-07-28T03:36:13;975.08;;;889.85;;
17197;SDS011;8715;51.010;6.812;2023-07-28T03:38:59;972.85;;;887.67;;
17197;SDS011;8715;51.010;6.812;2023-07-28T03:41:44;970.88;;;885.63;;
17197;SDS011;8715;51.010;6.812;2023-07-28T03:44:29;970.03;;;884.63;;
17197;SDS011;8715;51.010;6.812;2023-07-28T03:47:14;976.20;;;891.53;;
17197;SDS011;8715;51.010;6.812;2023-07-28T03:49:59;967.65;;;882.47;;
17197;SDS011;8715;51.010;6.812;2023-07-28T03:52:43;972.17;;;886.70;;
17197;SDS011;8715;51.010;6.812;2023-07-28T03:55:30;968.60;;;884.42;;
17197;SDS011;8715;51.010;6.812;2023-07-28T03:58:15;972.47;;;888.08;;
17197;SDS011;8715;51.010;6.812;2023-07-28T04:01:00;968.45;;;883.65;;
17197;SDS011;8715;51.010;6.812;2023-07-28T04:03:45;974.00;;;889.35;;
17197;SDS011;8715;51.010;6.812;2023-07-28T04:06:39;976.30;;;890.72;;
17197;SDS011;8715;51.010;6.812;2023-07-28T04:09:25;975.00;;;889.63;;
17197;SDS011;8715;51.010;6.812;2023-07-28T04:12:11;973.72;;;888.58;;
17197;SDS011;8715;51.010;6.812;2023-07-28T04:14:56;975.22;;;889.95;;
17197;SDS011;8715;51.010;6.812;2023-07-28T04:17:41;973.95;;;888.33;;
17197;SDS011;8715;51.010;6.812;2023-07-28T04:20:25;976.88;;;891.20;;
17197;SDS011;8715;51.010;6.812;2023-07-28T04:23:10;978.50;;;892.17;;
17197;SDS011;8715;51.010;6.812;2023-07-28T04:25:56;971.95;;;886.38;;
17197;SDS011;8715;51.010;6.812;2023-07-28T04:28:42;971.25;;;886.47;;
17197;SDS011;8715;51.010;6.812;2023-07-28T04:31:27;969.38;;;884.80;;
17197;SDS011;8715;51.010;6.812;2023-07-28T04:34:11;973.35;;;888.15;;
17197;SDS011;8715;51.010;6.812;2023-07-28T04:36:56;971.20;;;886.13;;
17197;SDS011;8715;51.010;6.812;2023-07-28T04:39:42;976.60;;;892.53;;
17197;SDS011;8715;51.010;6.812;2023-07-28T04:42:28;971.17;;;886.22;;
17197;SDS011;8715;51.010;6.812;2023-07-28T04:45:14;972.25;;;887.63;;
17197;SDS011;8715;51.010;6.812;2023-07-28T04:47:59;970.63;;;886.22;;
17197;SDS011;8715;51.010;6.812;2023-07-28T04:50:44;973.70;;;888.33;;
17197;SDS011;8715;51.010;6.812;2023-07-28T04:53:29;972.05;;;887.15;;
17197;SDS011;8715;51.010;6.812;2023-07-28T04:56:14;980.50;;;895.70;;
17197;SDS011;8715;51.010;6.812;2023-07-28T04:58:59;981.08;;;895.92;;
17197;SDS011;8715;51.010;6.812;2023-07-28T05:01:46;970.75;;;885.10;;
17197;SDS011;8715;51.010;6.812;2023-07-28T05:04:31;978.88;;;894.40;;
17197;SDS011;8715;51.010;6.812;2023-07-28T05:07:16;970.13;;;885.17;;
17197;SDS011;8715;51.010;6.812;2023-07-28T05:10:01;969.30;;;884.42;;
17197;SDS011;8715;51.010;6.812;2023-07-28T05:12:46;971.80;;;886.70;;
17197;SDS011;8715;51.010;6.812;2023-07-28T05:15:31;971.33;;;885.90;;
17197;SDS011;8715;51.010;6.812;2023-07-28T05:18:18;970.25;;;885.25;;
17197;SDS011;8715;51.010;6.812;2023-07-28T05:21:02;971.40;;;886.08;;
17197;SDS011;8715;51.010;6.812;2023-07-28T05:23:47;969.08;;;883.75;;
17197;SDS011;8715;51.010;6.812;2023-07-28T05:26:32;969.17;;;884.03;;
17197;SDS011;8715;51.010;6.812;2023-07-28T05:29:17;981.55;;;896.00;;
17197;SDS011;8715;51.010;6.812;2023-07-28T05:32:02;969.30;;;884.42;;
17197;SDS011;8715;51.010;6.812;2023-07-28T05:34:49;970.40;;;885.53;;
17197;SDS011;8715;51.010;6.812;2023-07-28T05:37:33;970.42;;;885.17;;
17197;SDS011;8715;51.010;6.812;2023-07-28T05:40:18;971.45;;;886.28;;
17197;SDS011;8715;51.010;6.812;2023-07-28T05:43:03;971.88;;;886.28;;
17197;SDS011;8715;51.010;6.812;2023-07-28T05:45:48;976.80;;;890.50;;
17197;SDS011;8715;51.010;6.812;2023-07-28T05:48:33;970.28;;;884.90;;
17197;SDS011;8715;51.010;6.812;2023-07-28T05:51:19;972.15;;;886.75;;
17197;SDS011;8715;51.010;6.812;2023-07-28T05:54:05;974.75;;;888.55;;
17197;SDS011;8715;51.010;6.812;2023-07-28T05:56:50;972.35;;;886.72;;
17197;SDS011;8715;51.010;6.812;2023-07-28T05:59:35;975.28;;;889.42;;
17197;SDS011;8715;51.010;6.812;2023-07-28T06:02:20;971.88;;;886.20;;
17197;SDS011;8715;51.010;6.812;2023-07-28T06:05:05;975.38;;;889.35;;
17197;SDS011;8715;51.010;6.812;2023-07-28T06:07:51;972.42;;;886.47;;
17197;SDS011;8715;51.010;6.812;2023-07-28T06:10:36;975.72;;;889.63;;
17197;SDS011;8715;51.010;6.812;2023-07-28T06:13:21;973.17;;;887.33;;
17197;SDS011;8715;51.010;6.812;2023-07-28T06:16:06;973.47;;;887.58;;
17197;SDS011;8715;51.010;6.812;2023-07-28T06:18:51;971.55;;;885.95;;
17197;SDS011;8715;51.010;6.812;2023-07-28T06:21:36;976.25;;;890.90;;
17197;SDS011;8715;51.010;6.812;2023-07-28T06:24:22;973.45;;;888.47;;
17197;SDS011;8715;51.010;6.812;2023-07-28T06:27:07;975.10;;;889.83;;
17197;SDS011;8715;51.010;6.812;2023-07-28T06:29:54;973.22;;;887.90;;
17197;SDS011;8715;51.010;6.812;2023-07-28T06:32:39;970.42;;;885.45;;
17197;SDS011;8715;51.010;6.812;2023-07-28T06:35:24;975.70;;;890.03;;
17197;SDS011;8715;51.010;6.812;2023-07-28T06:38:11;972.75;;;887.70;;
17197;SDS011;8715;51.010;6.812;2023-07-28T06:40:57;972.90;;;887.72;;
17197;SDS011;8715;51.010;6.812;2023-07-28T06:43:42;975.10;;;889.63;;
17197;SDS011;8715;51.010;6.812;2023-07-28T06:46:27;981.78;;;897.00;;
17197;SDS011;8715;51.010;6.812;2023-07-28T06:49:12;975.13;;;889.65;;
17197;SDS011;8715;51.010;6.812;2023-07-28T06:51:57;971.22;;;885.90;;
17197;SDS011;8715;51.010;6.812;2023-07-28T06:54:41;973.22;;;887.35;;
17197;SDS011;8715;51.010;6.812;2023-07-28T06:57:27;981.00;;;896.10;;
17197;SDS011;8715;51.010;6.812;2023-07-28T07:00:13;979.33;;;893.42;;
17197;SDS011;8715;51.010;6.812;2023-07-28T07:02:58;977.78;;;891.83;;
17197;SDS011;8715;51.010;6.812;2023-07-28T07:05:43;973.50;;;888.08;;
17197;SDS011;8715;51.010;6.812;2023-07-28T07:08:28;971.10;;;885.75;;
17197;SDS011;8715;51.010;6.812;2023-07-28T07:11:12;980.50;;;895.45;;
17197;SDS011;8715;51.010;6.812;2023-07-28T07:14:00;973.83;;;888.10;;
17197;SDS011;8715;51.010;6.812;2023-07-28T07:16:45;984.42;;;898.67;;
17197;SDS011;8715;51.010;6.812;2023-07-28T07:19:30;976.80;;;890.42;;
17197;SDS011;8715;51.010;6.812;2023-07-28T07:22:16;974.83;;;888.58;;
17197;SDS011;8715;51.010;6.812;2023-07-28T07:25:01;978.13;;;891.15;;
17197;SDS011;8715;51.010;6.812;2023-07-28T07:27:46;978.33;;;891.70;;
17197;SDS011;8715;51.010;6.812;2023-07-28T07:30:33;976.28;;;889.60;;
17197;SDS011;8715;51.010;6.812;2023-07-28T07:33:18;976.63;;;889.63;;
17197;SDS011;8715;51.010;6.812;2023-07-28T07:36:03;978.22;;;891.50;;
17197;SDS011;8715;51.010;6.812;2023-07-28T07:38:48;978.50;;;891.72;;
17197;SDS011;8715;51.010;6.812;2023-07-28T07:41:33;977.47;;;890.35;;
17197;SDS011;8715;51.010;6.812;2023-07-28T07:44:18;974.40;;;887.90;;
17197;SDS011;8715;51.010;6.812;2023-07-28T07:47:12;980.65;;;893.75;;
17197;SDS011;8715;51.010;6.812;2023-07-28T07:49:58;979.25;;;891.97;;
17197;SDS011;8715;51.010;6.812;2023-07-28T07:52:44;978.83;;;891.60;;
17197;SDS011;8715;51.010;6.812;2023-07-28T07:55:29;979.03;;;891.72;;
17197;SDS011;8715;51.010;6.812;2023-07-28T07:58:15;975.33;;;888.67;;
17197;SDS011;8715;51.010;6.812;2023-07-28T08:01:00;975.58;;;888.88;;
17197;SDS011;8715;51.010;6.812;2023-07-28T08:03:46;978.67;;;891.08;;
17197;SDS011;8715;51.010;6.812;2023-07-28T08:06:31;980.22;;;892.63;;
17197;SDS011;8715;51.010;6.812;2023-07-28T08:09:16;978.58;;;891.08;;
17197;SDS011;8715;51.010;6.812;2023-07-28T08:12:01;981.53;;;893.80;;
17197;SDS011;8715;51.010;6.812;2023-07-28T08:14:47;982.42;;;894.50;;
17197;SDS011;8715;51.010;6.812;2023-07-28T08:17:32;981.00;;;892.65;;
17197;SDS011;8715;51.010;6.812;2023-07-28T08:20:18;981.50;;;893.08;;
17197;SDS011;8715;51.010;6.812;2023-07-28T08:23:03;982.35;;;893.83;;
17197;SDS011;8715;51.010;6.812;2023-07-28T08:25:48;983.65;;;894.35;;
17197;SDS011;8715;51.010;6.812;2023-07-28T08:28:33;983.38;;;893.95;;
17197;SDS011;8715;51.010;6.812;2023-07-28T08:31:18;983.60;;;894.42;;
17197;SDS011;8715;51.010;6.812;2023-07-28T08:34:03;986.08;;;896.15;;
17197;SDS011;8715;51.010;6.812;2023-07-28T08:36:49;984.13;;;894.50;;
17197;SDS011;8715;51.010;6.812;2023-07-28T08:39:34;987.28;;;896.92;;
17197;SDS011;8715;51.010;6.812;2023-07-28T08:42:20;985.45;;;895.30;;
17197;SDS011;8715;51.010;6.812;2023-07-28T08:45:06;987.05;;;896.78;;
17197;SDS011;8715;51.010;6.812;2023-07-28T08:47:51;989.58;;;897.92;;
17197;SDS011;8715;51.010;6.812;2023-07-28T08:50:37;990.28;;;898.25;;
17197;SDS011;8715;51.010;6.812;2023-07-28T08:53:23;990.90;;;899.08;;
17197;SDS011;8715;51.010;6.812;2023-07-28T08:56:09;990.65;;;898.75;;
17197;SDS011;8715;51.010;6.812;2023-07-28T08:58:57;995.70;;;901.83;;
17197;SDS011;8715;51.010;6.812;2023-07-28T09:01:42;997.75;;;903.60;;
17197;SDS011;8715;51.010;6.812;2023-07-28T09:04:27;1000.28;;;905.60;;
17197;SDS011;8715;51.010;6.812;2023-07-28T09:07:12;999.30;;;904.25;;
17197;SDS011;8715;51.010;6.812;2023-07-28T09:10:00;1003.63;;;907.30;;
17197;SDS011;8715;51.010;6.812;2023-07-28T09:12:46;998.28;;;902.70;;
17197;SDS011;8715;51.010;6.812;2023-07-28T09:15:34;1001.85;;;905.13;;
17197;SDS011;8715;51.010;6.812;2023-07-28T09:18:19;1006.20;;;908.78;;
17197;SDS011;8715;51.010;6.812;2023-07-28T09:21:05;1003.72;;;906.90;;
17197;SDS011;8715;51.010;6.812;2023-07-28T09:23:50;1002.22;;;905.20;;
17197;SDS011;8715;51.010;6.812;2023-07-28T09:26:40;1003.50;;;906.30;;
17197;SDS011;8715;51.010;6.812;2023-07-28T09:29:26;1003.13;;;905.97;;
17197;SDS011;8715;51.010;6.812;2023-07-28T09:32:12;1004.97;;;907.45;;
17197;SDS011;8715;51.010;6.812;2023-07-28T09:35:07;1006.75;;;909.22;;
17197;SDS011;8715;51.010;6.812;2023-07-28T09:37:53;1004.00;;;907.28;;
17197;SDS011;8715;51.010;6.812;2023-07-28T09:40:38;1006.25;;;908.65;;
17197;SDS011;8715;51.010;6.812;2023-07-28T09:43:25;1001.13;;;904.50;;
17197;SDS011;8715;51.010;6.812;2023-07-28T09:46:11;1004.65;;;907.50;;
17197;SDS011;8715;51.010;6.812;2023-07-28T09:48:58;1004.63;;;907.42;;
17197;SDS011;8715;51.010;6.812;2023-07-28T09:51:43;1004.47;;;907.38;;
17197;SDS011;8715;51.010;6.812;2023-07-28T09:54:30;1004.53;;;906.90;;
17197;SDS011;8715;51.010;6.812;2023-07-28T09:57:17;1006.13;;;908.13;;
17197;SDS011;8715;51.010;6.812;2023-07-28T10:00:06;1009.47;;;911.17;;
17197;SDS011;8715;51.010;6.812;2023-07-28T10:02:52;1003.47;;;905.28;;
17197;SDS011;8715;51.010;6.812;2023-07-28T10:05:38;1008.10;;;908.90;;
17197;SDS011;8715;51.010;6.812;2023-07-28T10:08:24;1009.90;;;910.25;;
17197;SDS011;8715;51.010;6.812;2023-07-28T10:11:09;1010.70;;;911.10;;
17197;SDS011;8715;51.010;6.812;2023-07-28T10:13:55;1006.13;;;907.13;;
17197;SDS011;8715;51.010;6.812;2023-07-28T10:16:41;1005.65;;;907.08;;
17197;SDS011;8715;51.010;6.812;2023-07-28T10:19:28;1008.38;;;909.47;;
17197;SDS011;8715;51.010;6.812;2023-07-28T10:22:13;1008.88;;;910.38;;
17197;SDS011;8715;51.010;6.812;2023-07-28T10:25:00;1007.13;;;908.78;;
17197;SDS011;8715;51.010;6.812;2023-07-28T10:27:46;1004.80;;;906.83;;
17197;SDS011;8715;51.010;6.812;2023-07-28T10:30:35;1003.95;;;906.20;;
17197;SDS011;8715;51.010;6.812;2023-07-28T10:33:31;1011.50;;;913.83;;
17197;SDS011;8715;51.010;6.812;2023-07-28T10:36:17;1004.03;;;907.20;;
17197;SDS011;8715;51.010;6.812;2023-07-28T10:39:11;1001.00;;;904.67;;
17197;SDS011;8715;51.010;6.812;2023-07-28T10:42:00;1001.40;;;905.05;;
17197;SDS011;8715;51.010;6.812;2023-07-28T10:44:46;1001.97;;;904.80;;
17197;SDS011;8715;51.010;6.812;2023-07-28T10:47:32;1007.38;;;908.50;;
17197;SDS011;8715;51.010;6.812;2023-07-28T10:50:19;1009.92;;;909.72;;
17197;SDS011;8715;51.010;6.812;2023-07-28T10:53:04;1009.47;;;909.78;;
17197;SDS011;8715;51.010;6.812;2023-07-28T10:55:49;1010.15;;;909.55;;
17197;SDS011;8715;51.010;6.812;2023-07-28T10:58:34;1013.53;;;912.40;;
17197;SDS011;8715;51.010;6.812;2023-07-28T11:01:20;1015.17;;;912.45;;
17197;SDS011;8715;51.010;6.812;2023-07-28T11:04:07;1011.15;;;910.20;;
17197;SDS011;8715;51.010;6.812;2023-07-28T11:06:53;1013.55;;;912.83;;
17197;SDS011;8715;51.010;6.812;2023-07-28T11:09:38;1013.15;;;912.85;;
17197;SDS011;8715;51.010;6.812;2023-07-28T11:12:23;1013.50;;;912.33;;
17197;SDS011;8715;51.010;6.812;2023-07-28T11:15:09;1015.38;;;913.85;;
17197;SDS011;8715;51.010;6.812;2023-07-28T11:17:55;1020.80;;;918.53;;
17197;SDS011;8715;51.010;6.812;2023-07-28T11:20:40;1018.28;;;914.17;;
17197;SDS011;8715;51.010;6.812;2023-07-28T11:23:27;1021.63;;;916.53;;
17197;SDS011;8715;51.010;6.812;2023-07-28T11:26:12;1021.53;;;916.58;;
17197;SDS011;8715;51.010;6.812;2023-07-28T11:28:58;1017.03;;;912.60;;
17197;SDS011;8715;51.010;6.812;2023-07-28T11:31:44;1021.10;;;916.78;;
17197;SDS011;8715;51.010;6.812;2023-07-28T11:34:30;1021.28;;;916.10;;
17197;SDS011;8715;51.010;6.812;2023-07-28T11:37:18;1021.85;;;917.03;;
17197;SDS011;8715;51.010;6.812;2023-07-28T11:40:05;1021.72;;;916.90;;
17197;SDS011;8715;51.010;6.812;2023-07-28T11:42:54;1016.88;;;913.50;;
17197;SDS011;8715;51.010;6.812;2023-07-28T11:45:39;1018.50;;;915.17;;
17197;SDS011;8715;51.010;6.812;2023-07-28T11:48:24;1018.38;;;914.72;;
17197;SDS011;8715;51.010;6.812;2023-07-28T11:51:14;1024.53;;;919.88;;
17197;SDS011;8715;51.010;6.812;2023-07-28T11:53:58;1024.20;;;919.03;;
17197;SDS011;8715;51.010;6.812;2023-07-28T11:56:46;1025.97;;;920.78;;
17197;SDS011;8715;51.010;6.812;2023-07-28T12:02:23;1018.97;;;915.40;;
17197;SDS011;8715;51.010;6.812;2023-07-28T12:05:11;1026.30;;;922.70;;
17197;SDS011;8715;51.010;6.812;2023-07-28T12:07:56;1025.53;;;920.30;;
17197;SDS011;8715;51.010;6.812;2023-07-28T12:10:53;1023.28;;;918.20;;
17197;SDS011;8715;51.010;6.812;2023-07-28T12:13:49;1023.97;;;920.70;;
17197;SDS011;8715;51.010;6.812;2023-07-28T12:16:38;1020.25;;;915.65;;
17197;SDS011;8715;51.010;6.812;2023-07-28T12:19:23;1023.45;;;918.35;;
17197;SDS011;8715;51.010;6.812;2023-07-28T12:22:08;1024.63;;;918.75;;
17197;SDS011;8715;51.010;6.812;2023-07-28T12:24:53;1028.85;;;922.33;;
17197;SDS011;8715;51.010;6.812;2023-07-28T12:27:38;1029.70;;;923.90;;
17197;SDS011;8715;51.010;6.812;2023-07-28T12:30:24;1023.13;;;916.92;;
17197;SDS011;8715;51.010;6.812;2023-07-28T12:33:10;1026.30;;;919.45;;
17197;SDS011;8715;51.010;6.812;2023-07-28T12:35:54;1029.65;;;923.83;;
17197;SDS011;8715;51.010;6.812;2023-07-28T12:38:39;1025.55;;;919.15;;
17197;SDS011;8715;51.010;6.812;2023-07-28T12:41:24;1022.05;;;916.13;;
17197;SDS011;8715;51.010;6.812;2023-07-28T12:44:09;1020.22;;;914.83;;
17197;SDS011;8715;51.010;6.812;2023-07-28T12:46:55;1026.85;;;920.75;;
17197;SDS011;8715;51.010;6.812;2023-07-28T12:49:40;1019.13;;;914.47;;
17197;SDS011;8715;51.010;6.812;2023-07-28T12:52:25;1015.38;;;911.50;;
17197;SDS011;8715;51.010;6.812;2023-07-28T12:55:10;1016.50;;;912.72;;
17197;SDS011;8715;51.010;6.812;2023-07-28T12:57:55;1017.03;;;913.30;;
17197;SDS011;8715;51.010;6.812;2023-07-28T13:00:41;1016.00;;;912.47;;
17197;SDS011;8715;51.010;6.812;2023-07-28T13:03:28;1018.60;;;915.20;;
17197;SDS011;8715;51.010;6.812;2023-07-28T13:06:13;1017.25;;;913.40;;
17197;SDS011;8715;51.010;6.812;2023-07-28T13:08:58;1016.10;;;913.08;;
17197;SDS011;8715;51.010;6.812;2023-07-28T13:11:43;1014.03;;;912.47;;
17197;SDS011;8715;51.010;6.812;2023-07-28T13:14:28;1015.97;;;913.65;;
17197;SDS011;8715;51.010;6.812;2023-07-28T13:17:13;1013.60;;;912.00;;
17197;SDS011;8715;51.010;6.812;2023-07-28T13:19:59;1020.58;;;918.75;;
17197;SDS011;8715;51.010;6.812;2023-07-28T13:22:44;1014.00;;;912.10;;
17197;SDS011;8715;51.010;6.812;2023-07-28T13:25:29;1016.67;;;914.10;;
17197;SDS011;8715;51.010;6.812;2023-07-28T13:28:14;1019.67;;;915.67;;
17197;SDS011;8715;51.010;6.812;2023-07-28T13:30:59;1025.25;;;921.70;;
17197;SDS011;8715;51.010;6.812;2023-07-28T13:33:44;1018.50;;;914.67;;
17197;SDS011;8715;51.010;6.812;2023-07-28T13:36:31;1016.88;;;913.17;;
17197;SDS011;8715;51.010;6.812;2023-07-28T13:39:16;1018.00;;;913.92;;
17197;SDS011;8715;51.010;6.812;2023-07-28T13:42:01;1018.92;;;915.58;;
17197;SDS011;8715;51.010;6.812;2023-07-28T13:44:45;1017.80;;;914.20;;
17197;SDS011;8715;51.010;6.812;2023-07-28T13:47:31;1019.90;;;916.17;;
17197;SDS011;8715;51.010;6.812;2023-07-28T13:50:16;1019.95;;;915.45;;
17197;SDS011;8715;51.010;6.812;2023-07-28T13:53:02;1019.47;;;915.17;;
17197;SDS011;8715;51.010;6.812;2023-07-28T13:55:47;1016.88;;;914.20;;
17197;SDS011;8715;51.010;6.812;2023-07-28T13:58:32;1019.38;;;916.05;;
17197;SDS011;8715;51.010;6.812;2023-07-28T14:01:18;1021.10;;;917.15;;
17197;SDS011;8715;51.010;6.812;2023-07-28T14:04:03;1021.13;;;916.83;;
17197;SDS011;8715;51.010;6.812;2023-07-28T14:06:48;1022.08;;;918.10;;
17197;SDS011;8715;51.010;6.812;2023-07-28T14:09:34;1017.90;;;914.00;;
17197;SDS011;8715;51.010;6.812;2023-07-28T14:12:19;1019.40;;;915.08;;
17197;SDS011;8715;51.010;6.812;2023-07-28T14:15:05;1016.80;;;913.90;;
17197;SDS011;8715;51.010;6.812;2023-07-28T14:17:50;1019.35;;;915.25;;
17197;SDS011;8715;51.010;6.812;2023-07-28T14:20:35;1016.22;;;912.70;;
17197;SDS011;8715;51.010;6.812;2023-07-28T14:23:21;1018.03;;;914.85;;
17197;SDS011;8715;51.010;6.812;2023-07-28T14:26:08;1016.50;;;914.90;;
17197;SDS011;8715;51.010;6.812;2023-07-28T14:28:52;1015.55;;;913.22;;
17197;SDS011;8715;51.010;6.812;2023-07-28T14:31:37;1014.58;;;912.47;;
17197;SDS011;8715;51.010;6.812;2023-07-28T14:34:22;1016.97;;;914.90;;
17197;SDS011;8715;51.010;6.812;2023-07-28T14:37:07;1014.53;;;912.65;;
17197;SDS011;8715;51.010;6.812;2023-07-28T14:39:52;1016.65;;;914.40;;
17197;SDS011;8715;51.010;6.812;2023-07-28T14:42:39;1012.22;;;911.70;;
17197;SDS011;8715;51.010;6.812;2023-07-28T14:45:23;1010.40;;;910.17;;
17197;SDS011;8715;51.010;6.812;2023-07-28T14:48:08;1009.08;;;909.60;;
17197;SDS011;8715;51.010;6.812;2023-07-28T14:50:53;1007.20;;;909.10;;
17197;SDS011;8715;51.010;6.812;2023-07-28T14:53:38;1001.83;;;905.00;;
17197;SDS011;8715;51.010;6.812;2023-07-28T14:56:23;999.92;;;903.58;;
17197;SDS011;8715;51.010;6.812;2023-07-28T14:59:10;1005.00;;;909.95;;
17197;SDS011;8715;51.010;6.812;2023-07-28T15:01:55;997.05;;;902.47;;
17197;SDS011;8715;51.010;6.812;2023-07-28T15:04:39;995.03;;;900.30;;
17197;SDS011;8715;51.010;6.812;2023-07-28T15:07:24;1002.20;;;905.47;;
17197;SDS011;8715;51.010;6.812;2023-07-28T15:10:10;998.97;;;902.83;;
17197;SDS011;8715;51.010;6.812;2023-07-28T15:12:55;999.70;;;903.45;;
17197;SDS011;8715;51.010;6.812;2023-07-28T15:15:41;1002.00;;;905.00;;
17197;SDS011;8715;51.010;6.812;2023-07-28T15:18:26;1001.13;;;904.78;;
17197;SDS011;8715;51.010;6.812;2023-07-28T15:21:11;1004.28;;;906.35;;
17197;SDS011;8715;51.010;6.812;2023-07-28T15:23:55;1005.60;;;907.58;;
17197;SDS011;8715;51.010;6.812;2023-07-28T15:26:40;1002.60;;;904.13;;
17197;SDS011;8715;51.010;6.812;2023-07-28T15:29:30;1006.10;;;907.78;;
17197;SDS011;8715;51.010;6.812;2023-07-28T15:32:16;1004.85;;;906.25;;
17197;SDS011;8715;51.010;6.812;2023-07-28T15:35:01;1002.75;;;905.05;;
17197;SDS011;8715;51.010;6.812;2023-07-28T15:37:46;997.60;;;901.88;;
17197;SDS011;8715;51.010;6.812;2023-07-28T15:40:31;1000.50;;;904.03;;
17197;SDS011;8715;51.010;6.812;2023-07-28T15:43:16;997.05;;;901.85;;
17197;SDS011;8715;51.010;6.812;2023-07-28T15:46:01;998.13;;;903.20;;
17197;SDS011;8715;51.010;6.812;2023-07-28T15:48:49;994.92;;;899.85;;
17197;SDS011;8715;51.010;6.812;2023-07-28T15:51:34;997.13;;;902.38;;